| time (UTC) | temp C | wind direction | speed KPH | gust KPH | rain 1hr cm | rain 24hr cm | rain mn cm | humidity % | barometer mb |
| 20260507164516 | 16 | 315 | 6.4 | 22.5 | 0.00 | 0.64 | 0.05 | 39 | 1006.4 |
| 20260507163516 | 16 | 270 | 4.8 | 12.9 | 0.00 | 0.64 | 0.05 | 50 | 1006.5 |
| 20260507162516 | 16 | 315 | 4.8 | 12.9 | 0.00 | 0.64 | 0.05 | 41 | 1006.6 |
| 20260507161516 | 16 | 0 | 4.8 | 12.9 | 0.00 | 0.64 | 0.05 | 45 | 1006.8 |
| 20260507160516 | 15 | 45 | 11.3 | 30.6 | 0.00 | 0.64 | 0.05 | 42 | 1006.8 |
| 20260507155516 | 15 | 293 | 4.8 | 14.5 | 0.00 | 0.64 | 0.05 | 46 | 1006.8 |
| 20260507154516 | 15 | 293 | 4.8 | 14.5 | 0.00 | 0.64 | 0.05 | 52 | 1006.9 |
| 20260507153537 | 15 | 23 | 8.0 | 25.7 | 0.00 | 0.64 | 0.05 | 52 | 1006.9 |
| 20260507152536 | 15 | 180 | 4.8 | 12.9 | 0.00 | 0.64 | 0.05 | 50 | 1007.0 |
| 20260507151537 | 15 | 225 | 3.2 | 12.9 | 0.00 | 0.64 | 0.05 | 57 | 1007.1 |
| 20260507150516 | 14 | 248 | 6.4 | 19.3 | 0.00 | 0.64 | 0.05 | 56 | 1007.2 |
| 20260507145516 | 15 | 315 | 6.4 | 14.5 | 0.00 | 0.64 | 0.05 | 54 | 1007.3 |
| 20260507144516 | 15 | 225 | 4.8 | 11.3 | 0.00 | 0.64 | 0.05 | 56 | 1007.2 |
| 20260507143517 | 13 | 248 | 3.2 | 12.9 | 0.00 | 0.64 | 0.05 | 62 | 1007.3 |
| 20260507142536 | 13 | 23 | 4.8 | 12.9 | 0.00 | 0.64 | 0.05 | 60 | 1007.2 |
| 20260507141516 | 13 | 270 | 4.8 | 14.5 | 0.00 | 0.64 | 0.05 | 62 | 1007.3 |
| 20260507140537 | 13 | 338 | 3.2 | 6.4 | 0.00 | 0.64 | 0.05 | 65 | 1007.2 |
| 20260507135516 | 12 | 248 | 3.2 | 11.3 | 0.00 | 0.64 | 0.05 | 65 | 1007.1 |
| 20260507134516 | 12 | 225 | 3.2 | 6.4 | 0.00 | 0.64 | 0.05 | 66 | 1007.2 |
| 20260507133516 | 12 | 45 | 1.6 | 9.7 | 0.00 | 0.64 | 0.05 | 66 | 1007.0 |
| 20260507132516 | 12 | 225 | 4.8 | 12.9 | 0.00 | 0.64 | 0.05 | 68 | 1007.2 |
| 20260507131516 | 12 | 225 | 1.6 | 8.0 | 0.00 | 0.64 | 0.05 | 68 | 1007.3 |
| 20260507130536 | 12 | 225 | 3.2 | 9.7 | 0.00 | 0.64 | 0.05 | 72 | 1007.4 |
| 20260507125516 | 11 | 270 | 3.2 | 12.9 | 0.00 | 0.64 | 0.05 | 72 | 1007.5 |
| 20260507124516 | 11 | 270 | 3.2 | 9.7 | 0.00 | 0.64 | 0.05 | 76 | 1007.4 |
| 20260507123516 | 11 | 45 | 4.8 | 14.5 | 0.00 | 0.64 | 0.05 | 74 | 1007.5 |
| 20260507122516 | 11 | 315 | 3.2 | 12.9 | 0.00 | 0.64 | 0.05 | 77 | 1007.6 |
| 20260507121516 | 10 | 45 | 3.2 | 9.7 | 0.00 | 0.64 | 0.05 | 80 | 1007.7 |
| 20260507120516 | 10 | 270 | 3.2 | 11.3 | 0.00 | 0.64 | 0.05 | 80 | 1007.7 |
| 20260507115516 | 10 | 68 | 1.6 | 6.4 | 0.00 | 0.64 | 0.05 | 82 | 1007.7 |
| 20260507114516 | 10 | 23 | 4.8 | 9.7 | 0.00 | 0.64 | 0.05 | 84 | 1007.5 |
| 20260507113536 | 9 | 23 | 1.6 | 4.8 | 0.00 | 0.64 | 0.05 | 87 | 1007.4 |
| 20260507112556 | 8 | 0.0 | 4.8 | 0.00 | 0.64 | 0.05 | 90 | 1007.5 | |
| 20260507111516 | 8 | 0.0 | 6.4 | 0.00 | 0.64 | 0.05 | 90 | 1007.3 | |
| 20260507110516 | 8 | 0.0 | 0.0 | 0.00 | 0.64 | 0.05 | 91 | 1007.3 | |
| 20260507105536 | 8 | 0.0 | 0.0 | 0.00 | 0.64 | 0.05 | 91 | 1007.3 | |
| 20260507104516 | 8 | 0.0 | 0.0 | 0.00 | 0.64 | 0.05 | 91 | 1007.4 | |
| 20260507103517 | 8 | 0.0 | 0.0 | 0.00 | 0.64 | 0.05 | 91 | 1007.1 | |
| 20260507102516 | 8 | 0.0 | 0.0 | 0.00 | 0.64 | 0.05 | 91 | 1006.8 | |
| 20260507101517 | 8 | 0.0 | 0.0 | 0.00 | 0.64 | 0.05 | 91 | 1006.8 | |
| 20260507100516 | 8 | 0.0 | 3.2 | 0.00 | 0.64 | 0.05 | 90 | 1006.5 | |
| 20260507095516 | 8 | 0.0 | 1.6 | 0.00 | 0.64 | 0.05 | 90 | 1006.6 | |
| 20260507094516 | 8 | 0.0 | 3.2 | 0.00 | 0.64 | 0.05 | 90 | 1006.6 | |
| 20260507093516 | 8 | 338 | 1.6 | 3.2 | 0.00 | 0.64 | 0.05 | 90 | 1007.0 |
| 20260507092516 | 8 | 338 | 1.6 | 4.8 | 0.00 | 0.64 | 0.05 | 90 | 1006.7 |
| 20260507091516 | 8 | 315 | 1.6 | 8.0 | 0.00 | 0.64 | 0.05 | 90 | 1006.9 |
| 20260507090516 | 8 | 315 | 3.2 | 11.3 | 0.00 | 0.64 | 0.05 | 91 | 1007.0 |
| 20260507085516 | 8 | 0.0 | 3.2 | 0.00 | 0.64 | 0.05 | 91 | 1007.2 | |
| 20260507084557 | 8 | 0.0 | 6.4 | 0.00 | 0.64 | 0.05 | 92 | 1006.9 | |
| 20260507083516 | 8 | 0.0 | 1.6 | 0.03 | 0.64 | 0.05 | 92 | 1007.0 | |
| 20260507082516 | 8 | 0.0 | 4.8 | 0.03 | 0.64 | 0.05 | 91 | 1006.6 | |
| 20260507081521 | 8 | 0.0 | 1.6 | 0.03 | 0.64 | 0.05 | 91 | 1006.8 | |
| 20260507080516 | 8 | 0.0 | 4.8 | 0.03 | 0.64 | 0.05 | 91 | 1006.6 | |
| 20260507075517 | 9 | 338 | 1.6 | 4.8 | 0.03 | 0.64 | 0.05 | 90 | 1006.4 |
| 20260507074517 | 9 | 0 | 3.2 | 6.4 | 0.03 | 0.64 | 0.05 | 90 | 1006.6 |
| 20260507073516 | 9 | 203 | 1.6 | 4.8 | 0.00 | 0.61 | 0.03 | 89 | 1006.7 |
| 20260507072518 | 10 | 338 | 1.6 | 4.8 | 0.00 | 0.61 | 0.03 | 89 | 1006.6 |
| 20260507071518 | 10 | 315 | 1.6 | 8.0 | 0.00 | 0.61 | 0.03 | 90 | 1006.1 |
| 20260507070537 | 10 | 0.0 | 4.8 | 0.00 | 0.61 | 0.03 | 91 | 1005.9 | |
| 20260507065519 | 10 | 270 | 3.2 | 6.4 | 0.00 | 0.61 | 0.03 | 91 | 1006.1 |
| 20260507064516 | 10 | 0.0 | 4.8 | 0.00 | 0.61 | 0.03 | 93 | 1005.8 | |
| 20260507063517 | 10 | 0.0 | 3.2 | 0.00 | 0.61 | 0.03 | 93 | 1005.9 | |
| 20260507062516 | 10 | 0.0 | 3.2 | 0.00 | 0.61 | 0.03 | 93 | 1006.0 | |
| 20260507061516 | 10 | 0.0 | 3.2 | 0.00 | 0.61 | 0.03 | 93 | 1005.9 | |
| 20260507060516 | 11 | 0.0 | 3.2 | 0.00 | 0.61 | 0.03 | 94 | 1005.8 | |
| 20260507055517 | 11 | 0.0 | 0.0 | 0.00 | 0.61 | 0.03 | 94 | 1006.1 | |
| 20260507054517 | 11 | 0.0 | 0.0 | 0.00 | 0.61 | 0.03 | 94 | 1006.2 | |
| 20260507053517 | 11 | 315 | 1.6 | 8.0 | 0.00 | 0.61 | 0.03 | 94 | 1006.5 |
| 20260507052538 | 11 | 0.0 | 1.6 | 0.00 | 0.61 | 0.03 | 94 | 1006.6 | |
| 20260507051537 | 11 | 0.0 | 0.0 | 0.00 | 0.61 | 0.03 | 94 | 1006.1 | |
| 20260507050516 | 11 | 0.0 | 0.0 | 0.00 | 0.61 | 0.03 | 93 | 1006.6 | |
| 20260507045537 | 11 | 0.0 | 0.0 | 0.03 | 0.61 | 0.03 | 93 | 1006.5 | |
| 20260507044517 | 11 | 0.0 | 0.0 | 0.03 | 0.61 | 0.03 | 93 | 1006.2 | |
| 20260507043518 | 11 | 23 | 1.6 | 4.8 | 0.05 | 0.61 | 0.03 | 93 | 1006.2 |
| 20260507042516 | 12 | 0.0 | 3.2 | 0.05 | 0.61 | 0.03 | 93 | 1006.1 | |
| 20260507041516 | 12 | 338 | 1.6 | 8.0 | 0.05 | 0.61 | 0.03 | 92 | 1006.2 |
| 20260507040517 | 12 | 293 | 1.6 | 11.3 | 0.05 | 0.61 | 0.03 | 93 | 1006.1 |
| 20260507035517 | 12 | 338 | 4.8 | 14.5 | 0.03 | 0.58 | 0.58 | 93 | 1006.1 |
| 20260507034516 | 13 | 0 | 3.2 | 11.3 | 0.03 | 0.58 | 0.58 | 93 | 1006.0 |
| 20260507033516 | 13 | 293 | 4.8 | 16.1 | 0.00 | 0.56 | 0.56 | 94 | 1006.0 |
| 20260507032516 | 13 | 270 | 3.2 | 11.3 | 0.00 | 0.56 | 0.56 | 94 | 1005.7 |
| 20260507031517 | 14 | 0 | 1.6 | 4.8 | 0.00 | 0.56 | 0.56 | 95 | 1005.4 |
| 20260507030537 | 14 | 0.0 | 8.0 | 0.00 | 0.56 | 0.56 | 95 | 1005.2 | |
| 20260507025517 | 14 | 23 | 1.6 | 4.8 | 0.00 | 0.56 | 0.56 | 95 | 1004.9 |
| 20260507024516 | 14 | 203 | 1.6 | 6.4 | 0.00 | 0.56 | 0.56 | 95 | 1004.9 |
| 20260507023537 | 15 | 203 | 3.2 | 14.5 | 0.00 | 0.56 | 0.56 | 95 | 1005.0 |
| 20260507022537 | 15 | 0.0 | 3.2 | 0.00 | 0.56 | 0.56 | 95 | 1005.1 | |
| 20260507021517 | 14 | 225 | 4.8 | 11.3 | 0.00 | 0.56 | 0.56 | 95 | 1004.9 |
| 20260507020516 | 14 | 0.0 | 3.2 | 0.00 | 0.56 | 0.56 | 95 | 1004.7 | |
| 20260507015517 | 14 | 203 | 1.6 | 6.4 | 0.00 | 0.56 | 0.56 | 95 | 1004.8 |
| 20260507014517 | 14 | 0.0 | 4.8 | 0.00 | 0.56 | 0.56 | 95 | 1004.7 | |
| 20260507013516 | 14 | 158 | 1.6 | 8.0 | 0.00 | 0.56 | 0.56 | 95 | 1004.7 |
| 20260507012517 | 14 | 180 | 1.6 | 12.9 | 0.00 | 0.56 | 0.56 | 95 | 1004.6 |
| 20260507011537 | 14 | 203 | 3.2 | 8.0 | 0.03 | 0.56 | 0.56 | 95 | 1004.7 |
| 20260507010516 | 14 | 203 | 3.2 | 8.0 | 0.03 | 0.56 | 0.56 | 95 | 1004.7 |
| 20260507005517 | 14 | 203 | 3.2 | 12.9 | 0.03 | 0.56 | 0.56 | 95 | 1004.7 |
| 20260507004516 | 14 | 203 | 1.6 | 4.8 | 0.03 | 0.56 | 0.56 | 95 | 1004.8 |
| 20260507003517 | 14 | 225 | 1.6 | 8.0 | 0.03 | 0.56 | 0.56 | 95 | 1004.7 |
| 20260507002516 | 14 | 203 | 1.6 | 8.0 | 0.03 | 0.56 | 0.56 | 95 | 1004.6 |
| 20260507001559 | 14 | 0.0 | 6.4 | 0.00 | 0.53 | 0.53 | 95 | 1004.5 | |
| 20260507000516 | 14 | 225 | 1.6 | 8.0 | 0.00 | 0.53 | 0.53 | 95 | 1004.6 |
| 20260506235517 | 14 | 203 | 3.2 | 6.4 | 0.03 | 0.53 | 0.53 | 95 | 1004.5 |
| 20260506234516 | 14 | 0.0 | 6.4 | 0.10 | 0.53 | 0.53 | 95 | 1004.4 | |
| 20260506233537 | 15 | 203 | 1.6 | 6.4 | 0.10 | 0.53 | 0.53 | 94 | 1004.4 |
| 20260506232516 | 15 | 225 | 1.6 | 4.8 | 0.13 | 0.53 | 0.53 | 94 | 1004.3 |
| 20260506231516 | 15 | 180 | 1.6 | 4.8 | 0.18 | 0.53 | 0.53 | 94 | 1004.4 |
| 20260506230516 | 15 | 225 | 3.2 | 8.0 | 0.20 | 0.53 | 0.53 | 94 | 1004.3 |
| 20260506225537 | 15 | 203 | 1.6 | 8.0 | 0.28 | 0.51 | 0.51 | 94 | 1004.4 |
| 20260506224516 | 15 | 203 | 3.2 | 12.9 | 0.23 | 0.43 | 0.43 | 94 | 1004.4 |
| 20260506223516 | 15 | 203 | 3.2 | 8.0 | 0.23 | 0.43 | 0.43 | 94 | 1004.6 |
| 20260506222516 | 15 | 203 | 3.2 | 8.0 | 0.23 | 0.41 | 0.41 | 94 | 1004.4 |
| 20260506221537 | 15 | 203 | 3.2 | 6.4 | 0.18 | 0.36 | 0.36 | 93 | 1004.6 |
| 20260506220517 | 15 | 203 | 4.8 | 11.3 | 0.15 | 0.33 | 0.33 | 93 | 1004.8 |
| 20260506215516 | 15 | 225 | 3.2 | 9.7 | 0.05 | 0.23 | 0.23 | 93 | 1004.8 |
| 20260506214517 | 15 | 203 | 3.2 | 8.0 | 0.03 | 0.20 | 0.20 | 92 | 1004.9 |
| 20260506213517 | 15 | 225 | 4.8 | 16.1 | 0.03 | 0.20 | 0.20 | 92 | 1004.9 |
| 20260506212516 | 15 | 203 | 3.2 | 8.0 | 0.03 | 0.18 | 0.18 | 92 | 1004.9 |
| 20260506211516 | 15 | 203 | 3.2 | 16.1 | 0.03 | 0.18 | 0.18 | 92 | 1005.1 |
| 20260506210516 | 15 | 203 | 4.8 | 11.3 | 0.05 | 0.18 | 0.18 | 92 | 1005.1 |
| 20260506205517 | 15 | 158 | 1.6 | 6.4 | 0.08 | 0.18 | 0.18 | 92 | 1005.3 |
| 20260506204516 | 15 | 203 | 3.2 | 11.3 | 0.08 | 0.18 | 0.18 | 91 | 1005.4 |
| 20260506203537 | 15 | 180 | 8.0 | 20.9 | 0.08 | 0.18 | 0.18 | 91 | 1005.4 |
| 20260506202517 | 16 | 203 | 4.8 | 16.1 | 0.05 | 0.15 | 0.15 | 91 | 1005.5 |
| 20260506201516 | 16 | 203 | 3.2 | 9.7 | 0.05 | 0.15 | 0.15 | 90 | 1005.5 |
| 20260506200536 | 16 | 225 | 3.2 | 12.9 | 0.05 | 0.13 | 0.13 | 89 | 1005.3 |
| 20260506195516 | 16 | 203 | 6.4 | 12.9 | 0.05 | 0.10 | 0.10 | 88 | 1005.5 |
| 20260506194516 | 16 | 203 | 3.2 | 14.5 | 0.05 | 0.10 | 0.10 | 88 | 1005.5 |
| 20260506193516 | 16 | 180 | 4.8 | 14.5 | 0.08 | 0.10 | 0.10 | 88 | 1005.5 |
| 20260506192517 | 16 | 225 | 4.8 | 14.5 | 0.10 | 0.10 | 0.10 | 88 | 1005.5 |
| 20260506191516 | 16 | 225 | 4.8 | 11.3 | 0.10 | 0.10 | 0.10 | 86 | 1005.6 |
| 20260506190516 | 17 | 180 | 6.4 | 17.7 | 0.08 | 0.08 | 0.08 | 84 | 1005.5 |
| 20260506185517 | 17 | 203 | 1.6 | 6.4 | 0.05 | 0.05 | 0.05 | 84 | 1005.6 |
| 20260506184516 | 18 | 225 | 4.8 | 17.7 | 0.05 | 0.05 | 0.05 | 79 | 1005.8 |
| 20260506183516 | 18 | 203 | 4.8 | 11.3 | 0.03 | 0.03 | 0.03 | 77 | 1006.0 |
| 20260506182517 | 19 | 225 | 4.8 | 12.9 | 0.00 | 0.00 | 0.00 | 73 | 1005.9 |
| 20260506181516 | 20 | 225 | 8.0 | 19.3 | 0.00 | 0.00 | 0.00 | 69 | 1006.2 |
| 20260506180517 | 20 | 225 | 9.7 | 22.5 | 0.00 | 0.00 | 0.00 | 63 | 1006.0 |
| 20260506175517 | 21 | 225 | 12.9 | 33.8 | 0.00 | 0.00 | 0.00 | 60 | 1006.0 |
| 20260506174517 | 21 | 203 | 9.7 | 19.3 | 0.00 | 0.00 | 0.00 | 58 | 1006.0 |
| 20260506173517 | 22 | 203 | 6.4 | 16.1 | 0.00 | 0.00 | 0.00 | 56 | 1005.9 |
| 20260506172537 | 22 | 180 | 8.0 | 17.7 | 0.00 | 0.00 | 0.00 | 56 | 1005.8 |
| 20260506171536 | 22 | 203 | 8.0 | 22.5 | 0.00 | 0.00 | 0.00 | 55 | 1005.9 |
| 20260506170516 | 22 | 225 | 11.3 | 24.1 | 0.00 | 0.00 | 0.00 | 54 | 1006.0 |
| 20260506165517 | 22 | 203 | 8.0 | 17.7 | 0.00 | 0.00 | 0.00 | 55 | 1006.0 |